sensor_id;sensor_type;location;lat;lon;timestamp;P1;durP1;ratioP1;P2;durP2;ratioP2
58196;SDS011;43999;51.660;5.616;2023-06-22T00:01:22;9.32;;;8.40;;
58196;SDS011;43999;51.660;5.616;2023-06-22T00:03:49;8.77;;;8.07;;
58196;SDS011;43999;51.660;5.616;2023-06-22T00:06:17;10.70;;;9.70;;
58196;SDS011;43999;51.660;5.616;2023-06-22T00:08:44;11.18;;;10.15;;
58196;SDS011;43999;51.660;5.616;2023-06-22T00:11:11;10.80;;;9.90;;
58196;SDS011;43999;51.660;5.616;2023-06-22T00:13:39;10.77;;;9.77;;
58196;SDS011;43999;51.660;5.616;2023-06-22T00:16:08;9.80;;;8.68;;
58196;SDS011;43999;51.660;5.616;2023-06-22T00:18:35;10.18;;;9.15;;
58196;SDS011;43999;51.660;5.616;2023-06-22T00:21:03;10.90;;;9.48;;
58196;SDS011;43999;51.660;5.616;2023-06-22T00:23:31;10.15;;;9.25;;
58196;SDS011;43999;51.660;5.616;2023-06-22T00:26:00;11.75;;;10.65;;
58196;SDS011;43999;51.660;5.616;2023-06-22T00:28:29;11.65;;;10.55;;
58196;SDS011;43999;51.660;5.616;2023-06-22T00:30:56;12.88;;;11.45;;
58196;SDS011;43999;51.660;5.616;2023-06-22T00:33:24;13.15;;;12.05;;
58196;SDS011;43999;51.660;5.616;2023-06-22T00:35:52;13.07;;;11.77;;
58196;SDS011;43999;51.660;5.616;2023-06-22T00:38:20;12.40;;;11.18;;
58196;SDS011;43999;51.660;5.616;2023-06-22T00:40:47;12.45;;;11.20;;
58196;SDS011;43999;51.660;5.616;2023-06-22T00:43:15;12.02;;;10.75;;
58196;SDS011;43999;51.660;5.616;2023-06-22T00:45:42;11.68;;;10.48;;
58196;SDS011;43999;51.660;5.616;2023-06-22T00:48:09;12.93;;;11.70;;
58196;SDS011;43999;51.660;5.616;2023-06-22T00:50:39;12.70;;;11.50;;
58196;SDS011;43999;51.660;5.616;2023-06-22T00:53:08;12.48;;;11.48;;
58196;SDS011;43999;51.660;5.616;2023-06-22T00:55:39;14.38;;;13.05;;
58196;SDS011;43999;51.660;5.616;2023-06-22T00:58:12;14.10;;;12.82;;
58196;SDS011;43999;51.660;5.616;2023-06-22T01:00:40;12.95;;;11.88;;
58196;SDS011;43999;51.660;5.616;2023-06-22T01:03:08;14.18;;;12.77;;
58196;SDS011;43999;51.660;5.616;2023-06-22T01:05:37;14.88;;;13.32;;
58196;SDS011;43999;51.660;5.616;2023-06-22T01:11:20;14.02;;;12.60;;
58196;SDS011;43999;51.660;5.616;2023-06-22T01:14:26;13.77;;;12.43;;
58196;SDS011;43999;51.660;5.616;2023-06-22T01:17:23;14.93;;;13.63;;
58196;SDS011;43999;51.660;5.616;2023-06-22T01:19:54;14.65;;;13.23;;
58196;SDS011;43999;51.660;5.616;2023-06-22T01:22:24;13.85;;;12.60;;
58196;SDS011;43999;51.660;5.616;2023-06-22T01:25:17;14.35;;;12.90;;
58196;SDS011;43999;51.660;5.616;2023-06-22T01:30:51;13.23;;;11.75;;
58196;SDS011;43999;51.660;5.616;2023-06-22T01:33:33;13.32;;;11.40;;
58196;SDS011;43999;51.660;5.616;2023-06-22T01:36:07;13.60;;;12.27;;
58196;SDS011;43999;51.660;5.616;2023-06-22T01:38:37;14.75;;;13.45;;
58196;SDS011;43999;51.660;5.616;2023-06-22T01:41:06;12.70;;;11.43;;
58196;SDS011;43999;51.660;5.616;2023-06-22T01:43:33;11.90;;;10.80;;
58196;SDS011;43999;51.660;5.616;2023-06-22T01:46:03;14.32;;;12.55;;
58196;SDS011;43999;51.660;5.616;2023-06-22T01:48:31;11.88;;;10.77;;
58196;SDS011;43999;51.660;5.616;2023-06-22T01:51:00;14.27;;;12.88;;
58196;SDS011;43999;51.660;5.616;2023-06-22T01:53:29;15.40;;;13.98;;
58196;SDS011;43999;51.660;5.616;2023-06-22T01:55:57;15.00;;;13.48;;
58196;SDS011;43999;51.660;5.616;2023-06-22T01:58:28;15.45;;;12.98;;
58196;SDS011;43999;51.660;5.616;2023-06-22T02:00:58;12.73;;;11.52;;
58196;SDS011;43999;51.660;5.616;2023-06-22T02:03:41;13.85;;;12.18;;
58196;SDS011;43999;51.660;5.616;2023-06-22T02:06:39;13.55;;;12.18;;
58196;SDS011;43999;51.660;5.616;2023-06-22T02:09:16;12.35;;;11.15;;
58196;SDS011;43999;51.660;5.616;2023-06-22T02:11:48;13.02;;;11.75;;
58196;SDS011;43999;51.660;5.616;2023-06-22T02:14:21;13.07;;;11.82;;
58196;SDS011;43999;51.660;5.616;2023-06-22T02:16:51;13.73;;;12.25;;
58196;SDS011;43999;51.660;5.616;2023-06-22T02:19:22;13.48;;;12.35;;
58196;SDS011;43999;51.660;5.616;2023-06-22T02:21:52;13.30;;;11.98;;
58196;SDS011;43999;51.660;5.616;2023-06-22T02:24:19;13.77;;;12.45;;
58196;SDS011;43999;51.660;5.616;2023-06-22T02:26:49;13.20;;;11.35;;
58196;SDS011;43999;51.660;5.616;2023-06-22T02:29:17;13.27;;;11.93;;
58196;SDS011;43999;51.660;5.616;2023-06-22T02:31:46;13.88;;;12.43;;
58196;SDS011;43999;51.660;5.616;2023-06-22T02:34:13;15.00;;;13.60;;
58196;SDS011;43999;51.660;5.616;2023-06-22T02:36:45;13.68;;;12.20;;
58196;SDS011;43999;51.660;5.616;2023-06-22T02:39:21;15.10;;;13.57;;
58196;SDS011;43999;51.660;5.616;2023-06-22T02:41:51;15.20;;;13.35;;
58196;SDS011;43999;51.660;5.616;2023-06-22T02:44:21;15.55;;;14.10;;
58196;SDS011;43999;51.660;5.616;2023-06-22T02:46:49;15.35;;;13.95;;
58196;SDS011;43999;51.660;5.616;2023-06-22T02:49:17;13.68;;;12.23;;
58196;SDS011;43999;51.660;5.616;2023-06-22T02:51:48;13.98;;;12.55;;
58196;SDS011;43999;51.660;5.616;2023-06-22T02:54:19;12.85;;;11.40;;
58196;SDS011;43999;51.660;5.616;2023-06-22T02:56:49;15.77;;;14.27;;
58196;SDS011;43999;51.660;5.616;2023-06-22T02:59:17;14.25;;;12.75;;
58196;SDS011;43999;51.660;5.616;2023-06-22T03:01:52;16.38;;;13.10;;
58196;SDS011;43999;51.660;5.616;2023-06-22T03:04:29;14.00;;;12.63;;
58196;SDS011;43999;51.660;5.616;2023-06-22T03:06:57;13.55;;;12.02;;
58196;SDS011;43999;51.660;5.616;2023-06-22T03:09:29;13.15;;;11.85;;
58196;SDS011;43999;51.660;5.616;2023-06-22T03:11:57;12.52;;;11.38;;
58196;SDS011;43999;51.660;5.616;2023-06-22T03:14:31;13.48;;;12.05;;
58196;SDS011;43999;51.660;5.616;2023-06-22T03:16:59;15.25;;;13.68;;
58196;SDS011;43999;51.660;5.616;2023-06-22T03:19:29;15.90;;;13.90;;
58196;SDS011;43999;51.660;5.616;2023-06-22T03:21:59;18.63;;;15.27;;
58196;SDS011;43999;51.660;5.616;2023-06-22T03:24:27;14.35;;;12.95;;
58196;SDS011;43999;51.660;5.616;2023-06-22T03:26:57;14.55;;;13.18;;
58196;SDS011;43999;51.660;5.616;2023-06-22T03:29:24;15.32;;;13.82;;
58196;SDS011;43999;51.660;5.616;2023-06-22T03:31:55;13.73;;;12.32;;
58196;SDS011;43999;51.660;5.616;2023-06-22T03:34:23;15.93;;;12.45;;
58196;SDS011;43999;51.660;5.616;2023-06-22T03:36:51;15.40;;;13.68;;
58196;SDS011;43999;51.660;5.616;2023-06-22T03:39:19;14.20;;;12.52;;
58196;SDS011;43999;51.660;5.616;2023-06-22T03:41:47;17.80;;;15.73;;
58196;SDS011;43999;51.660;5.616;2023-06-22T03:44:14;15.10;;;13.57;;
58196;SDS011;43999;51.660;5.616;2023-06-22T03:46:42;16.48;;;14.88;;
58196;SDS011;43999;51.660;5.616;2023-06-22T03:49:10;14.98;;;13.50;;
58196;SDS011;43999;51.660;5.616;2023-06-22T03:51:38;14.75;;;13.27;;
58196;SDS011;43999;51.660;5.616;2023-06-22T03:54:05;16.73;;;14.93;;
58196;SDS011;43999;51.660;5.616;2023-06-22T03:56:32;15.18;;;13.57;;
58196;SDS011;43999;51.660;5.616;2023-06-22T03:58:59;14.75;;;13.25;;
58196;SDS011;43999;51.660;5.616;2023-06-22T04:01:27;16.42;;;13.60;;
58196;SDS011;43999;51.660;5.616;2023-06-22T04:03:54;15.82;;;14.25;;
58196;SDS011;43999;51.660;5.616;2023-06-22T04:06:22;14.93;;;13.52;;
58196;SDS011;43999;51.660;5.616;2023-06-22T04:08:49;15.00;;;13.02;;
58196;SDS011;43999;51.660;5.616;2023-06-22T04:11:18;15.50;;;13.90;;
58196;SDS011;43999;51.660;5.616;2023-06-22T04:13:45;15.73;;;14.10;;
58196;SDS011;43999;51.660;5.616;2023-06-22T04:16:12;15.85;;;14.35;;
58196;SDS011;43999;51.660;5.616;2023-06-22T04:18:40;16.95;;;15.35;;
58196;SDS011;43999;51.660;5.616;2023-06-22T04:21:08;16.55;;;14.93;;
58196;SDS011;43999;51.660;5.616;2023-06-22T04:23:37;16.02;;;14.43;;
58196;SDS011;43999;51.660;5.616;2023-06-22T04:26:04;15.90;;;14.40;;
58196;SDS011;43999;51.660;5.616;2023-06-22T04:28:31;18.05;;;15.38;;
58196;SDS011;43999;51.660;5.616;2023-06-22T04:31:02;15.93;;;14.27;;
58196;SDS011;43999;51.660;5.616;2023-06-22T04:33:30;17.38;;;15.57;;
58196;SDS011;43999;51.660;5.616;2023-06-22T04:35:58;19.67;;;17.90;;
58196;SDS011;43999;51.660;5.616;2023-06-22T04:38:31;19.85;;;18.05;;
58196;SDS011;43999;51.660;5.616;2023-06-22T04:41:01;17.52;;;15.20;;
58196;SDS011;43999;51.660;5.616;2023-06-22T04:43:29;20.83;;;18.92;;
58196;SDS011;43999;51.660;5.616;2023-06-22T04:45:57;18.90;;;16.90;;
58196;SDS011;43999;51.660;5.616;2023-06-22T04:48:30;17.80;;;16.10;;
58196;SDS011;43999;51.660;5.616;2023-06-22T04:51:01;17.63;;;15.93;;
58196;SDS011;43999;51.660;5.616;2023-06-22T04:53:31;16.98;;;15.00;;
58196;SDS011;43999;51.660;5.616;2023-06-22T04:55:58;17.58;;;15.93;;
58196;SDS011;43999;51.660;5.616;2023-06-22T04:58:26;18.52;;;16.73;;
58196;SDS011;43999;51.660;5.616;2023-06-22T05:00:58;17.80;;;15.65;;
58196;SDS011;43999;51.660;5.616;2023-06-22T05:03:26;21.52;;;19.42;;
58196;SDS011;43999;51.660;5.616;2023-06-22T05:05:53;22.67;;;20.23;;
58196;SDS011;43999;51.660;5.616;2023-06-22T05:08:21;20.27;;;16.92;;
58196;SDS011;43999;51.660;5.616;2023-06-22T05:10:53;21.38;;;19.27;;
58196;SDS011;43999;51.660;5.616;2023-06-22T05:13:31;18.67;;;16.80;;
58196;SDS011;43999;51.660;5.616;2023-06-22T05:15:59;22.05;;;19.95;;
58196;SDS011;43999;51.660;5.616;2023-06-22T05:18:30;20.17;;;18.20;;
58196;SDS011;43999;51.660;5.616;2023-06-22T05:20:58;25.73;;;17.30;;
58196;SDS011;43999;51.660;5.616;2023-06-22T05:23:35;19.10;;;17.25;;
58196;SDS011;43999;51.660;5.616;2023-06-22T05:26:02;22.13;;;20.27;;
58196;SDS011;43999;51.660;5.616;2023-06-22T05:28:30;21.23;;;19.20;;
58196;SDS011;43999;51.660;5.616;2023-06-22T05:30:57;19.42;;;17.50;;
58196;SDS011;43999;51.660;5.616;2023-06-22T05:33:24;22.80;;;20.60;;
58196;SDS011;43999;51.660;5.616;2023-06-22T05:35:52;21.90;;;19.60;;
58196;SDS011;43999;51.660;5.616;2023-06-22T05:38:19;22.40;;;20.20;;
58196;SDS011;43999;51.660;5.616;2023-06-22T05:40:46;20.48;;;18.58;;
58196;SDS011;43999;51.660;5.616;2023-06-22T05:43:13;20.38;;;18.48;;
58196;SDS011;43999;51.660;5.616;2023-06-22T05:45:41;21.50;;;19.60;;
58196;SDS011;43999;51.660;5.616;2023-06-22T05:48:09;23.52;;;21.35;;
58196;SDS011;43999;51.660;5.616;2023-06-22T05:50:36;23.25;;;20.95;;
58196;SDS011;43999;51.660;5.616;2023-06-22T05:53:04;22.25;;;20.20;;
58196;SDS011;43999;51.660;5.616;2023-06-22T05:55:33;21.50;;;19.27;;
58196;SDS011;43999;51.660;5.616;2023-06-22T05:58:01;24.42;;;22.25;;
58196;SDS011;43999;51.660;5.616;2023-06-22T06:00:30;23.17;;;20.88;;
58196;SDS011;43999;51.660;5.616;2023-06-22T06:02:58;24.77;;;22.63;;
58196;SDS011;43999;51.660;5.616;2023-06-22T06:05:31;23.15;;;20.98;;
58196;SDS011;43999;51.660;5.616;2023-06-22T06:08:00;22.75;;;20.67;;
58196;SDS011;43999;51.660;5.616;2023-06-22T06:10:31;20.67;;;18.95;;
58196;SDS011;43999;51.660;5.616;2023-06-22T06:13:00;21.77;;;19.83;;
58196;SDS011;43999;51.660;5.616;2023-06-22T06:15:34;23.58;;;21.27;;
58196;SDS011;43999;51.660;5.616;2023-06-22T06:18:01;23.40;;;21.17;;
58196;SDS011;43999;51.660;5.616;2023-06-22T06:20:32;25.88;;;19.55;;
58196;SDS011;43999;51.660;5.616;2023-06-22T06:23:00;24.88;;;22.63;;
58196;SDS011;43999;51.660;5.616;2023-06-22T06:25:28;23.92;;;21.83;;
58196;SDS011;43999;51.660;5.616;2023-06-22T06:27:55;26.30;;;23.80;;
58196;SDS011;43999;51.660;5.616;2023-06-22T06:30:22;22.33;;;20.20;;
58196;SDS011;43999;51.660;5.616;2023-06-22T06:32:50;24.35;;;22.10;;
58196;SDS011;43999;51.660;5.616;2023-06-22T06:35:18;26.63;;;24.25;;
58196;SDS011;43999;51.660;5.616;2023-06-22T06:37:47;24.05;;;21.85;;
58196;SDS011;43999;51.660;5.616;2023-06-22T06:40:17;28.20;;;25.80;;
58196;SDS011;43999;51.660;5.616;2023-06-22T06:42:46;28.60;;;22.77;;
58196;SDS011;43999;51.660;5.616;2023-06-22T06:45:17;26.00;;;23.70;;
58196;SDS011;43999;51.660;5.616;2023-06-22T06:47:51;24.33;;;22.10;;
58196;SDS011;43999;51.660;5.616;2023-06-22T06:50:19;25.63;;;23.50;;
58196;SDS011;43999;51.660;5.616;2023-06-22T06:52:48;25.95;;;23.48;;
58196;SDS011;43999;51.660;5.616;2023-06-22T06:55:17;25.63;;;23.55;;
58196;SDS011;43999;51.660;5.616;2023-06-22T06:57:45;24.45;;;22.15;;
58196;SDS011;43999;51.660;5.616;2023-06-22T07:00:14;25.05;;;22.98;;
58196;SDS011;43999;51.660;5.616;2023-06-22T07:02:43;24.25;;;22.15;;
58196;SDS011;43999;51.660;5.616;2023-06-22T07:05:14;22.40;;;20.40;;
58196;SDS011;43999;51.660;5.616;2023-06-22T07:07:42;22.45;;;20.35;;
58196;SDS011;43999;51.660;5.616;2023-06-22T07:10:10;23.20;;;21.17;;
58196;SDS011;43999;51.660;5.616;2023-06-22T07:12:38;22.02;;;20.05;;
58196;SDS011;43999;51.660;5.616;2023-06-22T07:15:06;24.58;;;22.25;;
58196;SDS011;43999;51.660;5.616;2023-06-22T07:17:36;23.50;;;21.48;;
58196;SDS011;43999;51.660;5.616;2023-06-22T07:20:07;23.17;;;21.10;;
58196;SDS011;43999;51.660;5.616;2023-06-22T07:22:38;24.50;;;22.25;;
58196;SDS011;43999;51.660;5.616;2023-06-22T07:25:07;23.73;;;21.58;;
58196;SDS011;43999;51.660;5.616;2023-06-22T07:27:36;24.70;;;22.50;;
58196;SDS011;43999;51.660;5.616;2023-06-22T07:30:11;24.40;;;22.20;;
58196;SDS011;43999;51.660;5.616;2023-06-22T07:32:39;22.92;;;20.80;;
58196;SDS011;43999;51.660;5.616;2023-06-22T07:35:07;28.13;;;25.35;;
58196;SDS011;43999;51.660;5.616;2023-06-22T07:37:35;22.63;;;20.63;;
58196;SDS011;43999;51.660;5.616;2023-06-22T07:40:02;21.40;;;19.45;;
58196;SDS011;43999;51.660;5.616;2023-06-22T07:42:32;25.75;;;23.63;;
58196;SDS011;43999;51.660;5.616;2023-06-22T07:45:00;25.25;;;22.90;;
58196;SDS011;43999;51.660;5.616;2023-06-22T07:47:30;20.83;;;18.90;;
58196;SDS011;43999;51.660;5.616;2023-06-22T07:50:02;21.48;;;19.67;;
58196;SDS011;43999;51.660;5.616;2023-06-22T07:52:31;21.25;;;19.25;;
58196;SDS011;43999;51.660;5.616;2023-06-22T07:54:59;22.17;;;20.20;;
58196;SDS011;43999;51.660;5.616;2023-06-22T07:57:26;22.73;;;20.73;;
58196;SDS011;43999;51.660;5.616;2023-06-22T08:00:01;21.67;;;19.88;;
58196;SDS011;43999;51.660;5.616;2023-06-22T08:02:42;20.67;;;18.83;;
58196;SDS011;43999;51.660;5.616;2023-06-22T08:05:14;21.42;;;19.35;;
58196;SDS011;43999;51.660;5.616;2023-06-22T08:07:59;19.50;;;17.65;;
58196;SDS011;43999;51.660;5.616;2023-06-22T08:10:27;24.17;;;22.08;;
58196;SDS011;43999;51.660;5.616;2023-06-22T08:12:54;22.35;;;20.55;;
58196;SDS011;43999;51.660;5.616;2023-06-22T08:15:21;22.27;;;20.30;;
58196;SDS011;43999;51.660;5.616;2023-06-22T08:17:49;20.38;;;18.52;;
58196;SDS011;43999;51.660;5.616;2023-06-22T08:20:18;20.70;;;19.00;;
58196;SDS011;43999;51.660;5.616;2023-06-22T08:22:46;22.67;;;20.65;;
58196;SDS011;43999;51.660;5.616;2023-06-22T08:25:13;18.85;;;17.08;;
58196;SDS011;43999;51.660;5.616;2023-06-22T08:27:44;17.77;;;16.38;;
58196;SDS011;43999;51.660;5.616;2023-06-22T08:30:14;19.48;;;17.65;;
58196;SDS011;43999;51.660;5.616;2023-06-22T08:32:42;19.42;;;17.83;;
58196;SDS011;43999;51.660;5.616;2023-06-22T08:35:10;18.23;;;16.08;;
58196;SDS011;43999;51.660;5.616;2023-06-22T08:37:37;15.98;;;14.48;;
58196;SDS011;43999;51.660;5.616;2023-06-22T08:40:07;17.02;;;15.52;;
58196;SDS011;43999;51.660;5.616;2023-06-22T08:42:37;18.55;;;16.75;;
58196;SDS011;43999;51.660;5.616;2023-06-22T08:45:08;16.52;;;15.00;;
58196;SDS011;43999;51.660;5.616;2023-06-22T08:47:36;16.65;;;15.10;;
58196;SDS011;43999;51.660;5.616;2023-06-22T08:50:04;15.52;;;14.23;;
58196;SDS011;43999;51.660;5.616;2023-06-22T08:52:35;16.20;;;14.80;;
58196;SDS011;43999;51.660;5.616;2023-06-22T08:55:04;15.05;;;13.68;;
58196;SDS011;43999;51.660;5.616;2023-06-22T08:57:32;17.13;;;15.60;;
58196;SDS011;43999;51.660;5.616;2023-06-22T09:00:00;16.55;;;15.07;;
58196;SDS011;43999;51.660;5.616;2023-06-22T09:02:27;16.08;;;14.43;;
58196;SDS011;43999;51.660;5.616;2023-06-22T09:04:58;52.42;;;18.80;;
58196;SDS011;43999;51.660;5.616;2023-06-22T09:07:26;15.05;;;13.73;;
58196;SDS011;43999;51.660;5.616;2023-06-22T09:09:54;17.27;;;15.57;;
58196;SDS011;43999;51.660;5.616;2023-06-22T09:12:23;20.75;;;15.05;;
58196;SDS011;43999;51.660;5.616;2023-06-22T09:14:53;16.52;;;15.00;;
58196;SDS011;43999;51.660;5.616;2023-06-22T09:17:21;15.25;;;13.77;;
58196;SDS011;43999;51.660;5.616;2023-06-22T09:19:49;17.48;;;16.05;;
58196;SDS011;43999;51.660;5.616;2023-06-22T09:22:16;17.20;;;15.27;;
58196;SDS011;43999;51.660;5.616;2023-06-22T09:24:44;15.63;;;13.98;;
58196;SDS011;43999;51.660;5.616;2023-06-22T09:27:12;14.27;;;13.05;;
58196;SDS011;43999;51.660;5.616;2023-06-22T09:29:39;16.55;;;15.15;;
58196;SDS011;43999;51.660;5.616;2023-06-22T09:32:06;19.63;;;17.80;;
58196;SDS011;43999;51.660;5.616;2023-06-22T09:34:34;18.40;;;16.48;;
58196;SDS011;43999;51.660;5.616;2023-06-22T09:37:01;14.85;;;13.25;;
58196;SDS011;43999;51.660;5.616;2023-06-22T09:39:29;17.88;;;16.05;;
58196;SDS011;43999;51.660;5.616;2023-06-22T09:41:58;15.70;;;14.20;;
58196;SDS011;43999;51.660;5.616;2023-06-22T09:44:26;16.83;;;15.30;;
58196;SDS011;43999;51.660;5.616;2023-06-22T09:46:54;17.08;;;15.57;;
58196;SDS011;43999;51.660;5.616;2023-06-22T09:49:21;14.10;;;12.95;;
58196;SDS011;43999;51.660;5.616;2023-06-22T09:52:07;16.30;;;14.63;;
58196;SDS011;43999;51.660;5.616;2023-06-22T09:54:34;17.65;;;15.95;;
58196;SDS011;43999;51.660;5.616;2023-06-22T09:57:02;18.13;;;16.50;;
58196;SDS011;43999;51.660;5.616;2023-06-22T09:59:29;16.80;;;15.18;;
58196;SDS011;43999;51.660;5.616;2023-06-22T10:01:57;17.33;;;15.35;;
58196;SDS011;43999;51.660;5.616;2023-06-22T10:04:24;19.70;;;16.98;;
58196;SDS011;43999;51.660;5.616;2023-06-22T10:06:52;16.33;;;14.75;;
58196;SDS011;43999;51.660;5.616;2023-06-22T10:09:22;25.42;;;16.60;;
58196;SDS011;43999;51.660;5.616;2023-06-22T10:11:49;20.35;;;16.92;;
58196;SDS011;43999;51.660;5.616;2023-06-22T10:14:17;19.58;;;14.65;;
58196;SDS011;43999;51.660;5.616;2023-06-22T10:16:44;15.52;;;13.93;;
58196;SDS011;43999;51.660;5.616;2023-06-22T10:19:12;16.33;;;14.65;;
58196;SDS011;43999;51.660;5.616;2023-06-22T10:21:40;16.13;;;14.75;;
58196;SDS011;43999;51.660;5.616;2023-06-22T10:24:08;25.00;;;18.02;;
58196;SDS011;43999;51.660;5.616;2023-06-22T10:26:35;19.17;;;17.30;;
58196;SDS011;43999;51.660;5.616;2023-06-22T10:29:03;18.25;;;16.40;;
58196;SDS011;43999;51.660;5.616;2023-06-22T10:31:33;18.42;;;16.73;;
58196;SDS011;43999;51.660;5.616;2023-06-22T10:34:01;23.60;;;19.20;;
58196;SDS011;43999;51.660;5.616;2023-06-22T10:36:28;19.10;;;17.33;;
58196;SDS011;43999;51.660;5.616;2023-06-22T10:38:55;21.27;;;19.38;;
58196;SDS011;43999;51.660;5.616;2023-06-22T10:41:25;17.85;;;16.25;;
58196;SDS011;43999;51.660;5.616;2023-06-22T10:43:55;17.98;;;16.23;;
58196;SDS011;43999;51.660;5.616;2023-06-22T10:46:26;19.10;;;17.45;;
58196;SDS011;43999;51.660;5.616;2023-06-22T10:48:54;19.63;;;17.98;;
58196;SDS011;43999;51.660;5.616;2023-06-22T10:51:23;17.55;;;15.90;;
58196;SDS011;43999;51.660;5.616;2023-06-22T10:53:52;17.58;;;16.08;;
58196;SDS011;43999;51.660;5.616;2023-06-22T10:56:19;20.13;;;18.42;;
58196;SDS011;43999;51.660;5.616;2023-06-22T10:58:46;17.35;;;15.77;;
58196;SDS011;43999;51.660;5.616;2023-06-22T11:01:14;17.73;;;16.02;;
58196;SDS011;43999;51.660;5.616;2023-06-22T11:04:00;20.73;;;18.73;;
58196;SDS011;43999;51.660;5.616;2023-06-22T11:06:28;21.60;;;19.38;;
58196;SDS011;43999;51.660;5.616;2023-06-22T11:08:55;22.13;;;20.17;;
58196;SDS011;43999;51.660;5.616;2023-06-22T11:11:42;24.45;;;22.02;;
58196;SDS011;43999;51.660;5.616;2023-06-22T11:14:10;20.60;;;18.50;;
58196;SDS011;43999;51.660;5.616;2023-06-22T11:16:37;20.10;;;18.27;;
58196;SDS011;43999;51.660;5.616;2023-06-22T11:19:06;20.20;;;18.23;;
58196;SDS011;43999;51.660;5.616;2023-06-22T11:21:33;20.20;;;18.40;;
58196;SDS011;43999;51.660;5.616;2023-06-22T11:24:01;22.77;;;20.92;;
58196;SDS011;43999;51.660;5.616;2023-06-22T11:26:29;21.77;;;19.80;;
58196;SDS011;43999;51.660;5.616;2023-06-22T11:28:58;26.02;;;23.98;;
58196;SDS011;43999;51.660;5.616;2023-06-22T11:31:25;25.88;;;23.90;;
58196;SDS011;43999;51.660;5.616;2023-06-22T11:33:52;27.15;;;25.08;;
58196;SDS011;43999;51.660;5.616;2023-06-22T11:36:20;27.73;;;25.48;;
58196;SDS011;43999;51.660;5.616;2023-06-22T11:38:47;57.40;;;29.70;;
58196;SDS011;43999;51.660;5.616;2023-06-22T11:41:15;26.73;;;23.95;;
58196;SDS011;43999;51.660;5.616;2023-06-22T11:43:42;28.67;;;24.83;;
58196;SDS011;43999;51.660;5.616;2023-06-22T11:46:10;30.75;;;27.48;;
58196;SDS011;43999;51.660;5.616;2023-06-22T11:48:38;27.83;;;25.00;;
58196;SDS011;43999;51.660;5.616;2023-06-22T11:51:05;37.53;;;26.98;;
58196;SDS011;43999;51.660;5.616;2023-06-22T11:53:34;29.42;;;26.40;;
58196;SDS011;43999;51.660;5.616;2023-06-22T11:56:02;31.65;;;28.55;;
58196;SDS011;43999;51.660;5.616;2023-06-22T11:58:29;30.55;;;27.63;;
58196;SDS011;43999;51.660;5.616;2023-06-22T12:00:56;34.83;;;31.17;;
58196;SDS011;43999;51.660;5.616;2023-06-22T12:03:24;33.10;;;29.20;;
58196;SDS011;43999;51.660;5.616;2023-06-22T12:05:51;34.17;;;31.27;;
58196;SDS011;43999;51.660;5.616;2023-06-22T12:08:19;40.05;;;36.13;;
58196;SDS011;43999;51.660;5.616;2023-06-22T12:10:51;31.98;;;29.15;;
58196;SDS011;43999;51.660;5.616;2023-06-22T12:13:20;33.85;;;30.52;;
58196;SDS011;43999;51.660;5.616;2023-06-22T12:15:47;30.17;;;27.58;;
58196;SDS011;43999;51.660;5.616;2023-06-22T12:18:15;29.70;;;27.13;;
58196;SDS011;43999;51.660;5.616;2023-06-22T12:20:43;31.27;;;28.63;;
58196;SDS011;43999;51.660;5.616;2023-06-22T12:23:11;31.88;;;28.85;;
58196;SDS011;43999;51.660;5.616;2023-06-22T12:25:38;32.90;;;29.75;;
58196;SDS011;43999;51.660;5.616;2023-06-22T12:28:05;30.27;;;27.23;;
58196;SDS011;43999;51.660;5.616;2023-06-22T12:30:33;34.17;;;31.35;;
58196;SDS011;43999;51.660;5.616;2023-06-22T12:33:00;31.65;;;28.63;;
58196;SDS011;43999;51.660;5.616;2023-06-22T12:35:28;31.67;;;28.65;;
58196;SDS011;43999;51.660;5.616;2023-06-22T12:37:55;29.10;;;26.25;;
58196;SDS011;43999;51.660;5.616;2023-06-22T12:40:22;34.35;;;31.05;;
58196;SDS011;43999;51.660;5.616;2023-06-22T12:42:50;32.63;;;29.70;;
58196;SDS011;43999;51.660;5.616;2023-06-22T12:45:18;35.08;;;31.98;;
58196;SDS011;43999;51.660;5.616;2023-06-22T12:47:47;31.33;;;28.60;;
58196;SDS011;43999;51.660;5.616;2023-06-22T12:50:16;26.83;;;24.25;;
58196;SDS011;43999;51.660;5.616;2023-06-22T12:52:43;33.88;;;30.77;;
58196;SDS011;43999;51.660;5.616;2023-06-22T12:55:11;30.65;;;27.98;;
58196;SDS011;43999;51.660;5.616;2023-06-22T12:57:38;26.73;;;24.40;;
58196;SDS011;43999;51.660;5.616;2023-06-22T13:00:06;23.80;;;21.70;;
58196;SDS011;43999;51.660;5.616;2023-06-22T13:02:36;25.60;;;23.02;;
58196;SDS011;43999;51.660;5.616;2023-06-22T13:05:04;27.08;;;24.67;;
58196;SDS011;43999;51.660;5.616;2023-06-22T13:07:31;26.77;;;24.35;;
58196;SDS011;43999;51.660;5.616;2023-06-22T13:09:59;27.10;;;24.70;;
58196;SDS011;43999;51.660;5.616;2023-06-22T13:12:27;24.48;;;22.38;;
58196;SDS011;43999;51.660;5.616;2023-06-22T13:14:54;22.08;;;20.17;;
58196;SDS011;43999;51.660;5.616;2023-06-22T13:17:21;25.17;;;22.95;;
58196;SDS011;43999;51.660;5.616;2023-06-22T13:19:49;25.00;;;23.05;;
58196;SDS011;43999;51.660;5.616;2023-06-22T13:22:32;25.10;;;22.90;;
58196;SDS011;43999;51.660;5.616;2023-06-22T13:25:11;24.95;;;22.85;;
58196;SDS011;43999;51.660;5.616;2023-06-22T13:27:40;30.88;;;28.17;;
58196;SDS011;43999;51.660;5.616;2023-06-22T13:30:08;28.17;;;25.48;;
58196;SDS011;43999;51.660;5.616;2023-06-22T13:32:40;30.50;;;27.88;;
58196;SDS011;43999;51.660;5.616;2023-06-22T13:35:09;32.85;;;30.05;;
58196;SDS011;43999;51.660;5.616;2023-06-22T13:37:38;34.30;;;31.50;;
58196;SDS011;43999;51.660;5.616;2023-06-22T13:40:06;26.95;;;24.52;;
58196;SDS011;43999;51.660;5.616;2023-06-22T13:42:35;28.98;;;26.55;;
58196;SDS011;43999;51.660;5.616;2023-06-22T13:45:03;21.35;;;19.13;;
58196;SDS011;43999;51.660;5.616;2023-06-22T13:47:34;28.33;;;25.65;;
58196;SDS011;43999;51.660;5.616;2023-06-22T13:50:02;23.52;;;21.23;;
58196;SDS011;43999;51.660;5.616;2023-06-22T13:52:29;27.05;;;24.55;;
58196;SDS011;43999;51.660;5.616;2023-06-22T13:54:57;25.88;;;23.58;;
58196;SDS011;43999;51.660;5.616;2023-06-22T13:57:24;25.52;;;23.17;;
58196;SDS011;43999;51.660;5.616;2023-06-22T13:59:52;26.83;;;24.10;;
58196;SDS011;43999;51.660;5.616;2023-06-22T14:02:19;31.40;;;28.50;;
58196;SDS011;43999;51.660;5.616;2023-06-22T14:04:47;31.10;;;28.40;;
58196;SDS011;43999;51.660;5.616;2023-06-22T14:07:14;28.15;;;25.40;;
58196;SDS011;43999;51.660;5.616;2023-06-22T14:09:42;24.90;;;22.58;;
58196;SDS011;43999;51.660;5.616;2023-06-22T14:12:10;28.92;;;26.20;;
58196;SDS011;43999;51.660;5.616;2023-06-22T14:14:38;30.27;;;27.52;;
58196;SDS011;43999;51.660;5.616;2023-06-22T14:17:06;34.90;;;32.13;;
58196;SDS011;43999;51.660;5.616;2023-06-22T14:19:33;35.67;;;32.38;;
58196;SDS011;43999;51.660;5.616;2023-06-22T14:22:00;34.08;;;30.67;;
58196;SDS011;43999;51.660;5.616;2023-06-22T14:24:29;39.15;;;35.75;;
58196;SDS011;43999;51.660;5.616;2023-06-22T14:26:56;41.17;;;37.45;;
58196;SDS011;43999;51.660;5.616;2023-06-22T14:29:24;37.13;;;33.90;;
58196;SDS011;43999;51.660;5.616;2023-06-22T14:31:52;39.78;;;35.88;;
58196;SDS011;43999;51.660;5.616;2023-06-22T14:34:20;45.90;;;41.60;;
58196;SDS011;43999;51.660;5.616;2023-06-22T14:36:47;41.60;;;37.92;;
58196;SDS011;43999;51.660;5.616;2023-06-22T14:39:14;40.75;;;37.17;;